sensor_id;sensor_type;location;lat;lon;timestamp;temperature;humidity
74359;DHT22;62792;46.236;6.040;2023-08-06T00:04:05;24.80;50.90
74359;DHT22;62792;46.236;6.040;2023-08-06T00:09:08;24.90;51.00
74359;DHT22;62792;46.236;6.040;2023-08-06T00:14:12;24.80;51.00
74359;DHT22;62792;46.236;6.040;2023-08-06T00:19:16;24.80;50.70
74359;DHT22;62792;46.236;6.040;2023-08-06T00:24:19;24.80;50.90
74359;DHT22;62792;46.236;6.040;2023-08-06T00:29:23;24.80;50.80
74359;DHT22;62792;46.236;6.040;2023-08-06T00:34:26;24.80;50.80
74359;DHT22;62792;46.236;6.040;2023-08-06T00:39:29;24.80;51.00
74359;DHT22;62792;46.236;6.040;2023-08-06T00:44:34;24.80;50.90
74359;DHT22;62792;46.236;6.040;2023-08-06T00:49:37;24.80;50.60
74359;DHT22;62792;46.236;6.040;2023-08-06T00:54:41;24.70;50.70
74359;DHT22;62792;46.236;6.040;2023-08-06T00:59:45;24.80;51.00
74359;DHT22;62792;46.236;6.040;2023-08-06T01:04:48;24.80;50.70
74359;DHT22;62792;46.236;6.040;2023-08-06T01:09:59;24.80;50.90
74359;DHT22;62792;46.236;6.040;2023-08-06T01:15:15;24.70;51.00
74359;DHT22;62792;46.236;6.040;2023-08-06T01:20:22;24.80;51.10
74359;DHT22;62792;46.236;6.040;2023-08-06T01:25:33;24.70;51.20
74359;DHT22;62792;46.236;6.040;2023-08-06T01:30:37;24.70;51.30
74359;DHT22;62792;46.236;6.040;2023-08-06T01:35:43;24.70;51.60
74359;DHT22;62792;46.236;6.040;2023-08-06T01:40:47;24.70;51.60
74359;DHT22;62792;46.236;6.040;2023-08-06T01:45:50;24.70;51.50
74359;DHT22;62792;46.236;6.040;2023-08-06T01:50:54;24.70;51.60
74359;DHT22;62792;46.236;6.040;2023-08-06T01:55:57;24.70;51.60
74359;DHT22;62792;46.236;6.040;2023-08-06T02:01:00;24.80;51.70
74359;DHT22;62792;46.236;6.040;2023-08-06T02:06:05;24.70;51.90
74359;DHT22;62792;46.236;6.040;2023-08-06T02:11:07;24.70;51.80
74359;DHT22;62792;46.236;6.040;2023-08-06T02:16:10;24.60;52.00
74359;DHT22;62792;46.236;6.040;2023-08-06T02:21:15;24.60;51.80
74359;DHT22;62792;46.236;6.040;2023-08-06T02:26:18;24.70;52.10
74359;DHT22;62792;46.236;6.040;2023-08-06T02:31:20;24.70;52.00
74359;DHT22;62792;46.236;6.040;2023-08-06T02:36:25;24.70;52.10
74359;DHT22;62792;46.236;6.040;2023-08-06T02:41:30;24.60;52.00
74359;DHT22;62792;46.236;6.040;2023-08-06T02:46:33;24.60;52.00
74359;DHT22;62792;46.236;6.040;2023-08-06T02:51:37;24.60;52.40
74359;DHT22;62792;46.236;6.040;2023-08-06T02:56:42;24.70;51.90
74359;DHT22;62792;46.236;6.040;2023-08-06T03:01:45;24.70;52.10
74359;DHT22;62792;46.236;6.040;2023-08-06T03:06:50;24.60;52.10
74359;DHT22;62792;46.236;6.040;2023-08-06T03:11:54;24.60;52.30
74359;DHT22;62792;46.236;6.040;2023-08-06T03:16:57;24.60;52.30
74359;DHT22;62792;46.236;6.040;2023-08-06T03:22:01;24.60;52.30
74359;DHT22;62792;46.236;6.040;2023-08-06T03:27:06;24.70;52.20
74359;DHT22;62792;46.236;6.040;2023-08-06T03:32:08;24.60;52.10
74359;DHT22;62792;46.236;6.040;2023-08-06T03:37:13;24.60;52.50
74359;DHT22;62792;46.236;6.040;2023-08-06T03:42:16;24.60;52.50
74359;DHT22;62792;46.236;6.040;2023-08-06T03:47:18;24.60;52.60
74359;DHT22;62792;46.236;6.040;2023-08-06T03:52:23;24.50;52.30
74359;DHT22;62792;46.236;6.040;2023-08-06T03:57:26;24.60;52.40
74359;DHT22;62792;46.236;6.040;2023-08-06T04:02:28;24.50;52.50
74359;DHT22;62792;46.236;6.040;2023-08-06T04:07:33;24.60;52.40
74359;DHT22;62792;46.236;6.040;2023-08-06T04:12:36;24.60;52.50
74359;DHT22;62792;46.236;6.040;2023-08-06T04:17:40;24.50;52.20
74359;DHT22;62792;46.236;6.040;2023-08-06T04:22:45;24.40;52.30
74359;DHT22;62792;46.236;6.040;2023-08-06T04:27:49;24.30;52.40
74359;DHT22;62792;46.236;6.040;2023-08-06T04:32:52;24.30;52.50
74359;DHT22;62792;46.236;6.040;2023-08-06T04:37:56;24.30;52.60
74359;DHT22;62792;46.236;6.040;2023-08-06T04:42:59;24.30;52.50
74359;DHT22;62792;46.236;6.040;2023-08-06T04:48:03;24.40;52.40
74359;DHT22;62792;46.236;6.040;2023-08-06T04:53:07;24.40;52.30
74359;DHT22;62792;46.236;6.040;2023-08-06T04:58:10;24.50;52.00
74359;DHT22;62792;46.236;6.040;2023-08-06T05:03:13;24.50;52.20
74359;DHT22;62792;46.236;6.040;2023-08-06T05:08:17;24.50;52.00
74359;DHT22;62792;46.236;6.040;2023-08-06T05:13:20;24.50;52.10
74359;DHT22;62792;46.236;6.040;2023-08-06T05:18:23;24.50;52.10
74359;DHT22;62792;46.236;6.040;2023-08-06T05:23:27;24.50;52.00
74359;DHT22;62792;46.236;6.040;2023-08-06T05:28:30;24.40;52.10
74359;DHT22;62792;46.236;6.040;2023-08-06T05:33:33;24.30;52.00
74359;DHT22;62792;46.236;6.040;2023-08-06T05:38:37;24.40;51.80
74359;DHT22;62792;46.236;6.040;2023-08-06T05:43:40;24.40;51.70
74359;DHT22;62792;46.236;6.040;2023-08-06T05:48:43;24.30;51.60
74359;DHT22;62792;46.236;6.040;2023-08-06T05:53:47;24.40;51.60
74359;DHT22;62792;46.236;6.040;2023-08-06T05:58:52;24.30;51.30
74359;DHT22;62792;46.236;6.040;2023-08-06T06:03:55;24.30;51.20
74359;DHT22;62792;46.236;6.040;2023-08-06T06:08:59;24.40;51.00
74359;DHT22;62792;46.236;6.040;2023-08-06T06:14:02;24.40;50.70
74359;DHT22;62792;46.236;6.040;2023-08-06T06:19:05;24.40;50.60
74359;DHT22;62792;46.236;6.040;2023-08-06T06:24:09;24.40;50.80
74359;DHT22;62792;46.236;6.040;2023-08-06T06:29:12;24.40;50.50
74359;DHT22;62792;46.236;6.040;2023-08-06T06:34:14;24.50;50.60
74359;DHT22;62792;46.236;6.040;2023-08-06T06:39:19;24.40;50.90
74359;DHT22;62792;46.236;6.040;2023-08-06T06:44:23;24.30;51.00
74359;DHT22;62792;46.236;6.040;2023-08-06T06:49:26;24.30;51.00
74359;DHT22;62792;46.236;6.040;2023-08-06T06:54:30;24.30;51.30
74359;DHT22;62792;46.236;6.040;2023-08-06T06:59:33;24.20;50.90
74359;DHT22;62792;46.236;6.040;2023-08-06T07:04:36;24.30;50.90
74359;DHT22;62792;46.236;6.040;2023-08-06T07:09:40;24.30;51.00
74359;DHT22;62792;46.236;6.040;2023-08-06T07:14:43;24.30;50.90
74359;DHT22;62792;46.236;6.040;2023-08-06T07:19:46;24.30;51.00
74359;DHT22;62792;46.236;6.040;2023-08-06T07:24:50;24.20;51.10
74359;DHT22;62792;46.236;6.040;2023-08-06T07:29:53;24.20;51.00
74359;DHT22;62792;46.236;6.040;2023-08-06T07:34:56;24.30;50.90
74359;DHT22;62792;46.236;6.040;2023-08-06T07:40:03;24.30;50.80
74359;DHT22;62792;46.236;6.040;2023-08-06T07:45:07;24.30;50.70
74359;DHT22;62792;46.236;6.040;2023-08-06T07:50:12;24.30;50.80
74359;DHT22;62792;46.236;6.040;2023-08-06T07:55:16;24.30;50.70
74359;DHT22;62792;46.236;6.040;2023-08-06T08:00:19;24.30;50.50
74359;DHT22;62792;46.236;6.040;2023-08-06T08:05:22;24.40;50.50
74359;DHT22;62792;46.236;6.040;2023-08-06T08:10:26;24.40;50.50
74359;DHT22;62792;46.236;6.040;2023-08-06T08:15:29;24.30;50.60
74359;DHT22;62792;46.236;6.040;2023-08-06T08:20:33;24.40;50.40
74359;DHT22;62792;46.236;6.040;2023-08-06T08:25:38;24.40;50.30
74359;DHT22;62792;46.236;6.040;2023-08-06T08:30:41;24.30;50.30
74359;DHT22;62792;46.236;6.040;2023-08-06T08:35:45;24.40;50.60
74359;DHT22;62792;46.236;6.040;2023-08-06T08:40:50;24.20;50.60
74359;DHT22;62792;46.236;6.040;2023-08-06T08:45:54;24.40;50.40
74359;DHT22;62792;46.236;6.040;2023-08-06T08:51:00;24.30;50.40
74359;DHT22;62792;46.236;6.040;2023-08-06T08:56:05;24.40;50.30
74359;DHT22;62792;46.236;6.040;2023-08-06T09:01:08;24.40;50.40
74359;DHT22;62792;46.236;6.040;2023-08-06T09:06:11;24.40;50.30
74359;DHT22;62792;46.236;6.040;2023-08-06T09:11:16;24.50;50.20
74359;DHT22;62792;46.236;6.040;2023-08-06T09:16:19;24.50;50.10
74359;DHT22;62792;46.236;6.040;2023-08-06T09:21:22;24.50;50.40
74359;DHT22;62792;46.236;6.040;2023-08-06T09:26:32;24.50;50.40
74359;DHT22;62792;46.236;6.040;2023-08-06T09:31:40;24.50;50.30
74359;DHT22;62792;46.236;6.040;2023-08-06T09:36:43;24.50;50.60
74359;DHT22;62792;46.236;6.040;2023-08-06T09:41:52;24.50;50.30
74359;DHT22;62792;46.236;6.040;2023-08-06T09:46:58;24.50;50.40
74359;DHT22;62792;46.236;6.040;2023-08-06T09:52:02;24.50;50.30
74359;DHT22;62792;46.236;6.040;2023-08-06T09:57:08;24.50;50.20
74359;DHT22;62792;46.236;6.040;2023-08-06T10:02:12;24.50;50.20
74359;DHT22;62792;46.236;6.040;2023-08-06T10:07:15;24.50;50.00
74359;DHT22;62792;46.236;6.040;2023-08-06T10:12:21;24.50;50.10
74359;DHT22;62792;46.236;6.040;2023-08-06T10:17:27;24.50;50.10
74359;DHT22;62792;46.236;6.040;2023-08-06T10:22:46;24.50;50.00
74359;DHT22;62792;46.236;6.040;2023-08-06T10:27:56;24.60;50.00
74359;DHT22;62792;46.236;6.040;2023-08-06T10:32:59;24.50;50.00
74359;DHT22;62792;46.236;6.040;2023-08-06T10:38:03;24.60;49.90
74359;DHT22;62792;46.236;6.040;2023-08-06T10:43:08;24.60;49.80
74359;DHT22;62792;46.236;6.040;2023-08-06T10:48:31;24.70;50.00
74359;DHT22;62792;46.236;6.040;2023-08-06T10:53:35;24.60;49.90
74359;DHT22;62792;46.236;6.040;2023-08-06T10:58:40;24.70;49.90
74359;DHT22;62792;46.236;6.040;2023-08-06T11:03:43;24.70;50.00
74359;DHT22;62792;46.236;6.040;2023-08-06T11:08:47;24.70;50.00
74359;DHT22;62792;46.236;6.040;2023-08-06T11:13:53;24.80;50.00
74359;DHT22;62792;46.236;6.040;2023-08-06T11:18:57;24.80;50.00
74359;DHT22;62792;46.236;6.040;2023-08-06T11:24:01;24.80;49.90
74359;DHT22;62792;46.236;6.040;2023-08-06T11:29:06;24.80;49.70
74359;DHT22;62792;46.236;6.040;2023-08-06T11:34:08;24.80;49.70
74359;DHT22;62792;46.236;6.040;2023-08-06T11:39:12;24.80;49.90
74359;DHT22;62792;46.236;6.040;2023-08-06T11:44:16;24.70;49.90
74359;DHT22;62792;46.236;6.040;2023-08-06T11:49:36;24.80;50.20
74359;DHT22;62792;46.236;6.040;2023-08-06T11:54:40;24.70;49.90
74359;DHT22;62792;46.236;6.040;2023-08-06T11:59:44;24.70;50.10
74359;DHT22;62792;46.236;6.040;2023-08-06T12:05:00;24.70;50.00
74359;DHT22;62792;46.236;6.040;2023-08-06T12:10:05;24.70;50.00
74359;DHT22;62792;46.236;6.040;2023-08-06T12:15:10;24.70;50.10
74359;DHT22;62792;46.236;6.040;2023-08-06T12:20:13;24.80;50.00
74359;DHT22;62792;46.236;6.040;2023-08-06T12:25:16;24.80;50.10
74359;DHT22;62792;46.236;6.040;2023-08-06T12:30:20;24.80;49.80
74359;DHT22;62792;46.236;6.040;2023-08-06T12:35:23;24.90;49.80
74359;DHT22;62792;46.236;6.040;2023-08-06T12:40:27;25.00;49.70
74359;DHT22;62792;46.236;6.040;2023-08-06T12:45:41;24.90;49.60
74359;DHT22;62792;46.236;6.040;2023-08-06T12:50:44;24.90;49.60
74359;DHT22;62792;46.236;6.040;2023-08-06T12:55:46;24.90;49.40
74359;DHT22;62792;46.236;6.040;2023-08-06T13:00:51;24.90;49.50
74359;DHT22;62792;46.236;6.040;2023-08-06T13:05:54;24.90;49.40
74359;DHT22;62792;46.236;6.040;2023-08-06T13:10:57;24.80;49.60
74359;DHT22;62792;46.236;6.040;2023-08-06T13:16:01;24.90;49.50
74359;DHT22;62792;46.236;6.040;2023-08-06T13:21:04;24.90;49.60
74359;DHT22;62792;46.236;6.040;2023-08-06T13:26:07;24.90;49.60
74359;DHT22;62792;46.236;6.040;2023-08-06T13:31:11;24.90;49.70
74359;DHT22;62792;46.236;6.040;2023-08-06T13:36:14;24.90;49.70
74359;DHT22;62792;46.236;6.040;2023-08-06T13:41:17;24.90;49.80
74359;DHT22;62792;46.236;6.040;2023-08-06T13:46:21;24.90;49.80
74359;DHT22;62792;46.236;6.040;2023-08-06T13:51:24;24.90;49.80
74359;DHT22;62792;46.236;6.040;2023-08-06T13:56:27;24.80;49.70
74359;DHT22;62792;46.236;6.040;2023-08-06T14:01:35;24.80;49.90
74359;DHT22;62792;46.236;6.040;2023-08-06T14:06:52;24.70;50.20
74359;DHT22;62792;46.236;6.040;2023-08-06T14:11:55;24.70;49.90
74359;DHT22;62792;46.236;6.040;2023-08-06T14:16:59;24.80;49.80
74359;DHT22;62792;46.236;6.040;2023-08-06T14:22:02;24.90;49.80
74359;DHT22;62792;46.236;6.040;2023-08-06T14:27:06;25.00;49.50
74359;DHT22;62792;46.236;6.040;2023-08-06T14:32:10;25.10;49.30
74359;DHT22;62792;46.236;6.040;2023-08-06T14:37:13;25.30;48.90
74359;DHT22;62792;46.236;6.040;2023-08-06T14:42:16;25.50;48.60
74359;DHT22;62792;46.236;6.040;2023-08-06T14:47:20;25.50;48.60
74359;DHT22;62792;46.236;6.040;2023-08-06T14:52:23;25.40;48.60
74359;DHT22;62792;46.236;6.040;2023-08-06T14:57:26;25.30;48.80
74359;DHT22;62792;46.236;6.040;2023-08-06T15:02:31;25.30;49.30
74359;DHT22;62792;46.236;6.040;2023-08-06T15:07:34;25.20;49.20
74359;DHT22;62792;46.236;6.040;2023-08-06T15:12:38;25.20;48.90
74359;DHT22;62792;46.236;6.040;2023-08-06T15:17:43;25.40;48.50
74359;DHT22;62792;46.236;6.040;2023-08-06T15:22:47;25.30;48.60
74359;DHT22;62792;46.236;6.040;2023-08-06T15:27:50;25.20;49.10
74359;DHT22;62792;46.236;6.040;2023-08-06T15:32:55;25.10;49.00
74359;DHT22;62792;46.236;6.040;2023-08-06T15:37:58;25.30;48.90
74359;DHT22;62792;46.236;6.040;2023-08-06T15:43:01;25.40;48.50
74359;DHT22;62792;46.236;6.040;2023-08-06T15:48:05;25.30;48.80
74359;DHT22;62792;46.236;6.040;2023-08-06T15:53:10;25.20;48.90
74359;DHT22;62792;46.236;6.040;2023-08-06T15:58:14;25.20;48.90
74359;DHT22;62792;46.236;6.040;2023-08-06T16:03:18;25.10;49.20
74359;DHT22;62792;46.236;6.040;2023-08-06T16:08:21;25.20;48.80
74359;DHT22;62792;46.236;6.040;2023-08-06T16:13:24;25.10;48.50
74359;DHT22;62792;46.236;6.040;2023-08-06T16:18:29;25.50;47.90
74359;DHT22;62792;46.236;6.040;2023-08-06T16:23:32;26.10;47.20
74359;DHT22;62792;46.236;6.040;2023-08-06T16:28:35;26.40;45.90
74359;DHT22;62792;46.236;6.040;2023-08-06T16:33:39;28.10;44.10
74359;DHT22;62792;46.236;6.040;2023-08-06T16:38:44;28.20;43.70
74359;DHT22;62792;46.236;6.040;2023-08-06T16:43:47;29.50;41.50
74359;DHT22;62792;46.236;6.040;2023-08-06T16:48:51;28.50;43.20
74359;DHT22;62792;46.236;6.040;2023-08-06T16:53:55;29.20;41.60
74359;DHT22;62792;46.236;6.040;2023-08-06T16:58:59;30.40;40.40
74359;DHT22;62792;46.236;6.040;2023-08-06T17:04:04;30.90;39.80
74359;DHT22;62792;46.236;6.040;2023-08-06T17:09:07;31.10;39.70
74359;DHT22;62792;46.236;6.040;2023-08-06T17:14:10;31.10;39.50
74359;DHT22;62792;46.236;6.040;2023-08-06T17:19:14;28.90;42.30
74359;DHT22;62792;46.236;6.040;2023-08-06T17:24:19;27.60;43.90
74359;DHT22;62792;46.236;6.040;2023-08-06T17:29:22;27.00;44.80
74359;DHT22;62792;46.236;6.040;2023-08-06T17:34:26;26.80;45.10
74359;DHT22;62792;46.236;6.040;2023-08-06T17:39:29;26.50;45.40
74359;DHT22;62792;46.236;6.040;2023-08-06T17:44:32;26.30;46.40
74359;DHT22;62792;46.236;6.040;2023-08-06T17:49:36;26.20;46.70
74359;DHT22;62792;46.236;6.040;2023-08-06T17:54:39;26.10;46.80
74359;DHT22;62792;46.236;6.040;2023-08-06T17:59:42;25.90;46.90
74359;DHT22;62792;46.236;6.040;2023-08-06T18:04:46;25.80;47.10
74359;DHT22;62792;46.236;6.040;2023-08-06T18:09:49;25.70;47.20
74359;DHT22;62792;46.236;6.040;2023-08-06T18:14:52;25.60;47.30
74359;DHT22;62792;46.236;6.040;2023-08-06T18:19:57;25.60;47.20
74359;DHT22;62792;46.236;6.040;2023-08-06T18:25:00;25.50;47.30
74359;DHT22;62792;46.236;6.040;2023-08-06T18:30:06;25.40;47.50
74359;DHT22;62792;46.236;6.040;2023-08-06T18:35:11;25.30;47.70
74359;DHT22;62792;46.236;6.040;2023-08-06T18:40:14;25.30;47.60
74359;DHT22;62792;46.236;6.040;2023-08-06T18:45:17;25.20;47.60
74359;DHT22;62792;46.236;6.040;2023-08-06T18:50:22;25.00;47.80
74359;DHT22;62792;46.236;6.040;2023-08-06T18:55:24;25.10;47.70
74359;DHT22;62792;46.236;6.040;2023-08-06T19:00:27;25.00;47.90
74359;DHT22;62792;46.236;6.040;2023-08-06T19:05:32;25.00;47.90
74359;DHT22;62792;46.236;6.040;2023-08-06T19:10:34;24.90;48.10
74359;DHT22;62792;46.236;6.040;2023-08-06T19:15:38;24.90;47.90
74359;DHT22;62792;46.236;6.040;2023-08-06T19:20:42;24.80;48.00
74359;DHT22;62792;46.236;6.040;2023-08-06T19:25:46;24.80;48.10
74359;DHT22;62792;46.236;6.040;2023-08-06T19:30:50;24.80;48.10
74359;DHT22;62792;46.236;6.040;2023-08-06T19:35:54;24.70;48.10
74359;DHT22;62792;46.236;6.040;2023-08-06T19:41:04;24.80;48.20
74359;DHT22;62792;46.236;6.040;2023-08-06T19:46:07;24.70;48.30
74359;DHT22;62792;46.236;6.040;2023-08-06T19:51:11;24.70;48.30
74359;DHT22;62792;46.236;6.040;2023-08-06T19:56:16;24.60;48.30
74359;DHT22;62792;46.236;6.040;2023-08-06T20:01:19;24.60;48.20
74359;DHT22;62792;46.236;6.040;2023-08-06T20:06:23;24.60;48.30
74359;DHT22;62792;46.236;6.040;2023-08-06T20:11:28;24.60;48.60
74359;DHT22;62792;46.236;6.040;2023-08-06T20:16:32;24.70;48.60
74359;DHT22;62792;46.236;6.040;2023-08-06T20:21:36;24.50;48.60
74359;DHT22;62792;46.236;6.040;2023-08-06T20:26:39;24.60;48.50
74359;DHT22;62792;46.236;6.040;2023-08-06T20:31:44;24.60;48.80
74359;DHT22;62792;46.236;6.040;2023-08-06T20:36:48;24.50;49.00
74359;DHT22;62792;46.236;6.040;2023-08-06T20:41:51;24.50;48.50
74359;DHT22;62792;46.236;6.040;2023-08-06T20:46:54;24.40;48.80
74359;DHT22;62792;46.236;6.040;2023-08-06T20:51:58;24.50;48.70
74359;DHT22;62792;46.236;6.040;2023-08-06T20:57:04;24.40;48.70
74359;DHT22;62792;46.236;6.040;2023-08-06T21:02:07;24.40;48.90
74359;DHT22;62792;46.236;6.040;2023-08-06T21:07:11;24.40;48.80
74359;DHT22;62792;46.236;6.040;2023-08-06T21:12:15;24.40;49.10
74359;DHT22;62792;46.236;6.040;2023-08-06T21:17:18;24.30;48.90
74359;DHT22;62792;46.236;6.040;2023-08-06T21:22:23;24.40;49.10
74359;DHT22;62792;46.236;6.040;2023-08-06T21:27:26;24.30;49.20
74359;DHT22;62792;46.236;6.040;2023-08-06T21:32:30;24.30;49.30
74359;DHT22;62792;46.236;6.040;2023-08-06T21:37:36;24.30;49.30
74359;DHT22;62792;46.236;6.040;2023-08-06T21:42:39;24.30;49.40
74359;DHT22;62792;46.236;6.040;2023-08-06T21:47:45;24.30;49.60
74359;DHT22;62792;46.236;6.040;2023-08-06T21:52:49;24.30;49.30
74359;DHT22;62792;46.236;6.040;2023-08-06T21:57:53;24.30;49.40
74359;DHT22;62792;46.236;6.040;2023-08-06T22:02:57;24.30;49.60
74359;DHT22;62792;46.236;6.040;2023-08-06T22:08:04;24.30;49.40
74359;DHT22;62792;46.236;6.040;2023-08-06T22:13:09;24.30;49.50
74359;DHT22;62792;46.236;6.040;2023-08-06T22:18:13;24.30;49.50
74359;DHT22;62792;46.236;6.040;2023-08-06T22:23:17;24.20;49.70
74359;DHT22;62792;46.236;6.040;2023-08-06T22:28:20;24.30;49.60
74359;DHT22;62792;46.236;6.040;2023-08-06T22:33:24;24.20;49.60
74359;DHT22;62792;46.236;6.040;2023-08-06T22:38:32;24.30;49.70
74359;DHT22;62792;46.236;6.040;2023-08-06T22:43:35;24.10;49.60
74359;DHT22;62792;46.236;6.040;2023-08-06T22:48:38;24.20;49.80
74359;DHT22;62792;46.236;6.040;2023-08-06T22:53:42;24.30;49.80
74359;DHT22;62792;46.236;6.040;2023-08-06T22:58:46;24.20;49.70
74359;DHT22;62792;46.236;6.040;2023-08-06T23:03:49;24.20;49.70
74359;DHT22;62792;46.236;6.040;2023-08-06T23:08:54;24.20;49.80
74359;DHT22;62792;46.236;6.040;2023-08-06T23:13:57;24.20;49.90
74359;DHT22;62792;46.236;6.040;2023-08-06T23:18:59;24.20;49.80
74359;DHT22;62792;46.236;6.040;2023-08-06T23:24:06;24.10;50.00
74359;DHT22;62792;46.236;6.040;2023-08-06T23:29:09;24.20;50.10
74359;DHT22;62792;46.236;6.040;2023-08-06T23:34:12;24.20;49.90
74359;DHT22;62792;46.236;6.040;2023-08-06T23:39:16;24.10;50.10
74359;DHT22;62792;46.236;6.040;2023-08-06T23:44:20;24.10;50.00
74359;DHT22;62792;46.236;6.040;2023-08-06T23:49:24;24.20;50.00
74359;DHT22;62792;46.236;6.040;2023-08-06T23:54:29;24.10;50.40
74359;DHT22;62792;46.236;6.040;2023-08-06T23:59:32;24.00;50.10
